X  Close Metar Aviation Weather Data        LELL Aeropuerto de Barcelona Josep Tarradellas
Temperature
23°C Temperature
18°C Dewpoint
73% Humidity



Wind
1 M/S
2 MPH
4 KM/H
2 KTS



-1°
VRB
Current Conditions

Mostly Sunny Mostly Sunny
Pressure 1011 (hPa) - 29.85 (inHg)
Visibility 6 (mile) - 10 (km)
Airport
Airport-code LELL

Location: Aeropuerto de Barcelona Josep Tarradellas
Distance: 20 (km)

Metar:
METAR LELL 190730Z VRB02KT 9999 FEW020 23/18 Q1012

Time: 19-06-2024 09:30 CEST